Grizzly Air Cargo 5114


PAFA
Fairbanks International Airport
Fairbanks, Alaska, US
PANC
Ted Stevens Anchorage International Airport
Anchorage, Alaska, US

Activity Log

Date Flight Route Aircraft Duration
12/12/2019 GRZ5114 N0423F350 PUYVO3 PUYVO KROTO4 B738 1h 04m
11/25/2019 GRZ5114 PUYVO2 PUYVO KROTO4 B738 0h 55m
10/13/2019 GRZ504 PUYVO2 PUYVO KROTO4 B722 0h 54m
09/30/2019 GRZ504 PUYVO3 PUYVO TAGER TAGER8 B722 1h 02m
09/18/2019 GRZ504 PUYVO2 PUYVO KROTO4 B722 0h 55m
09/16/2019 GRZ504 PUYVO2 PUYVO KROTO4 B722 0h 47m
09/11/2019 GRZ504 PUYVO2 PUYVO KROTO4 B722 0h 48m
09/09/2019 GRZ504 PUYVO2 PUYVO KROTO4 B722 0h 49m
09/09/2019 GRZ504 PUYVO2 PUYVO KROTO4 B722 1h 05m
09/07/2019 GRZ504 PUYVO2 PUYVO KROTO4 B722 0h 47m
08/30/2019 GRZ504 PUYVO2 PUYVO KROTO4 B722 0h 46m
08/16/2019 GRZ504 PUYVO2 PUYVO KROTO4 B722 0h 45m
07/09/2019 GRZ504 PUYVO2 PUYVO KROTO4 B722 0h 53m
07/02/2019 GRZ504 PUYVO2 PUYVO KROTO4 B722 0h 51m
06/27/2019 GRZ504 PUYVO2 PUYVO KROTO4 B722 0h 50m
03/21/2019 GRZ504 PUYVO2 PUYVO KROTO4 B722 0h 53m

Route Details

Aircraft Information
Primary: Boeing 727-200F
Backup: Boeing 737-800BCF
Route Data
Distance: 227nm
Sched. Duration: 1h 39m
Avg. Duration: 0h 60m (-80m)
Times Flown: 16
Recm'd Route: PUYVO2 PUYVO KROTO4
Planned Altitude: 32,000ft
Origin Wx: PAFA 290353Z 03005KT 10SM FEW040 BKN085 BKN110 BKN200 18/06 A3012 RMK AO2 RAE16 SLP204 P0000 T01830061
Dest. Wx: PANC 290353Z 01011KT 10SM FEW060 SCT090 BKN130 BKN200 19/06 A2995 RMK AO2 SLP142 VIRGA NW-NE T01940061
Notes:

Financial History
Total Freight: 551,704lbs
Average Load: 34,482lbs/flt
Fuel Used: 123,196lbs
Avg. Fuel Used: 7,700lbs/flt
Fuel Expense: $130,588
Avg. Fuel Expense: $8,162
Avg. Fuel Cost: $1.06/lbs
Total Gross Income: $790,072
Pilot Pay: $3,514
Total Expenses: $86,160
Total Revenue: $570,149
Average Revenue: $49,379.53